Time;durP1;ratioP1;P1;durP2;ratioP2;P2;SDS_P1;SDS_P2;PMS_P1;PMS_P2;Temp;Humidity;BMP_temperature;BMP_pressure;BME280_temperature;BME280_humidity;BME280_pressure;Samples;Min_cycle;Max_cycle;Signal;HPM_P1;HPM_P2
2022/07/25 00:01:17;;;;;;;;;;;;;;;;;;5097763;28;785;-71
2022/07/25 00:03:43;;;;;;;;;;;;;;;;;;5095960;28;1277;-70
2022/07/25 00:06:08;;;;;;;;;;;;;;;;;;5097259;28;1884;-71
2022/07/25 00:08:33;;;;;;;;;;;;;;;;;;5097509;28;897;-71
2022/07/25 00:10:59;;;;;;;;;;;;;;;;;;5097155;28;903;-71
2022/07/25 00:13:24;;;;;;;;;;;;;;;;;;5096244;28;1186;-71
2022/07/25 00:15:49;;;;;;;;;;;;;;;;;;5097348;28;1030;-71
2022/07/25 00:18:14;;;;;;;;;;;;;;;;;;5097868;28;1050;-70
2022/07/25 00:20:40;;;;;;;;;;;;;;;;;;5096858;28;1166;-70
2022/07/25 00:23:05;;;;;;;;;;;;;;;;;;5095864;28;1130;-71
2022/07/25 00:25:31;;;;;;;;;;;;;;;;;;5096571;28;1934;-70
2022/07/25 00:27:57;;;;;;;;;;;;;;;;;;5096019;28;818;-71
2022/07/25 00:30:22;;;;;;;;;;;;;;;;;;5096086;28;880;-71
2022/07/25 00:32:47;;;;;;;;;;;;;;;;;;5095177;28;955;-71
2022/07/25 00:35:12;;;;;;;;;;;;;;;;;;5094287;28;1019;-71
2022/07/25 00:37:38;;;;;;;;;;;;;;;;;;5095822;28;853;-71
2022/07/25 00:40:03;;;;;;;;;;;;;;;;;;5096773;28;897;-70
2022/07/25 00:42:29;;;;;;;;;;;;;;;;;;5094161;28;1062;-70
2022/07/25 00:44:54;;;;;;;;;;;;;;;;;;5076529;28;1660;-70
2022/07/25 00:47:19;;;;;;;;;;;;;;;;;;5095403;28;1902;-70
2022/07/25 00:49:45;;;;;;;;;;;;;;;;;;5095833;28;1268;-70
2022/07/25 00:52:10;;;;;;;;;;;;;;;;;;5094792;28;979;-71
2022/07/25 00:54:35;;;;;;;;;;;;;;;;;;5096548;28;1194;-71
2022/07/25 00:57:00;;;;;;;;;;;;;;;;;;5076664;28;1114;-71
2022/07/25 00:59:26;;;;;;;;;;;;;;;;;;5095072;28;900;-71
2022/07/25 01:01:51;;;;;;;;;;;;;;;;;;5094962;28;848;-71
2022/07/25 01:04:17;;;;;;;;;;;;;;;;;;5094507;28;947;-71
2022/07/25 01:06:42;;;;;;;;;;;;;;;;;;5094155;28;1902;-71
2022/07/25 01:09:08;;;;;;;;;;;;;;;;;;5094756;28;848;-71
2022/07/25 01:11:33;;;;;;;;;;;;;;;;;;5093041;28;1379;-71
2022/07/25 01:13:58;;;;;;;;;;;;;;;;;;5093104;28;924;-71
2022/07/25 01:16:23;;;;;;;;;;;;;;;;;;5094362;28;904;-71
2022/07/25 01:18:49;;;;;;;;;;;;;;;;;;5093815;28;884;-71
2022/07/25 01:21:14;;;;;;;;;;;;;;;;;;5076028;28;1209;-71
2022/07/25 01:23:39;;;;;;;;;;;;;;;;;;5098962;28;1215;-71
2022/07/25 01:26:05;;;;;;;;;;;;;;;;;;5092916;28;1967;-70
2022/07/25 01:28:30;;;;;;;;;;;;;;;;;;5093956;28;859;-70
2022/07/25 01:30:55;;;;;;;;;;;;;;;;;;5093733;28;887;-71
2022/07/25 01:33:20;;;;;;;;;;;;;;;;;;5092388;28;1273;-70
2022/07/25 01:35:46;;;;;;;;;;;;;;;;;;5093706;28;942;-70
2022/07/25 01:38:12;;;;;;;;;;;;;;;;;;5092464;28;817;-70
2022/07/25 01:40:37;;;;;;;;;;;;;;;;;;5093931;28;848;-70
2022/07/25 01:43:02;;;;;;;;;;;;;;;;;;5092002;28;912;-70
2022/07/25 01:45:28;;;;;;;;;;;;;;;;;;5093750;28;1960;-71
2022/07/25 01:47:53;;;;;;;;;;;;;;;;;;5093019;28;1387;-70
2022/07/25 01:50:18;;;;;;;;;;;;;;;;;;5092582;28;766;-70
2022/07/25 01:52:44;;;;;;;;;;;;;;;;;;5093732;28;995;-69
2022/07/25 01:55:09;;;;;;;;;;;;;;;;;;5092456;28;1158;-70
2022/07/25 01:57:34;;;;;;;;;;;;;;;;;;5093072;28;1161;-71
2022/07/25 02:00:00;;;;;;;;;;;;;;;;;;5094076;28;951;-70
2022/07/25 02:02:26;;;;;;;;;;;;;;;;;;5093697;28;797;-70
2022/07/25 02:04:51;;;;;;;;;;;;;;;;;;5092280;28;1094;-71
2022/07/25 02:07:16;;;;;;;;;;;;;;;;;;5074268;28;1914;-70
2022/07/25 02:09:42;;;;;;;;;;;;;;;;;;5092401;28;832;-70
2022/07/25 02:12:07;;;;;;;;;;;;;;;;;;5092661;28;999;-70
2022/07/25 02:14:32;;;;;;;;;;;;;;;;;;5092062;28;1245;-70
2022/07/25 02:16:58;;;;;;;;;;;;;;;;;;5091443;28;836;-70
2022/07/25 02:19:23;;;;;;;;;;;;;;;;;;5091615;28;880;-70
2022/07/25 02:21:48;;;;;;;;;;;;;;;;;;5091328;28;1233;-70
2022/07/25 02:24:13;;;;;;;;;;;;;;;;;;5092977;28;880;-71
2022/07/25 02:26:39;;;;;;;;;;;;;;;;;;5092987;28;1918;-71
2022/07/25 02:29:04;;;;;;;;;;;;;;;;;;5092038;28;829;-70
2022/07/25 02:31:29;;;;;;;;;;;;;;;;;;5092704;28;907;-69
2022/07/25 02:33:54;;;;;;;;;;;;;;;;;;5092458;28;904;-70
2022/07/25 02:36:20;;;;;;;;;;;;;;;;;;5091306;28;1262;-70
2022/07/25 02:38:45;;;;;;;;;;;;;;;;;;5092783;28;832;-70
2022/07/25 02:41:11;;;;;;;;;;;;;;;;;;5090955;28;1123;-70
2022/07/25 02:43:36;;;;;;;;;;;;;;;;;;5074681;28;1192;-71
2022/07/25 02:46:01;;;;;;;;;;;;;;;;;;5091036;28;1972;-71
2022/07/25 02:48:27;;;;;;;;;;;;;;;;;;5092363;28;848;-70
2022/07/25 02:50:52;;;;;;;;;;;;;;;;;;5092508;28;833;-69
2022/07/25 02:53:17;;;;;;;;;;;;;;;;;;5092310;28;876;-69
2022/07/25 02:55:42;;;;;;;;;;;;;;;;;;5092758;28;991;-69
2022/07/25 02:58:08;;;;;;;;;;;;;;;;;;5091221;28;1099;-69
2022/07/25 03:00:33;;;;;;;;;;;;;;;;;;5090980;28;919;-70
2022/07/25 03:02:58;;;;;;;;;;;;;;;;;;5092220;28;966;-69
2022/07/25 03:05:23;;;;;;;;;;;;;;;;;;5092828;28;1910;-69
2022/07/25 03:07:49;;;;;;;;;;;;;;;;;;5090886;28;1378;-70
2022/07/25 03:10:14;;;;;;;;;;;;;;;;;;5091671;28;1077;-70
2022/07/25 03:12:40;;;;;;;;;;;;;;;;;;5091597;28;1428;-69
2022/07/25 03:15:06;;;;;;;;;;;;;;;;;;5073962;28;1182;-69
2022/07/25 03:17:31;;;;;;;;;;;;;;;;;;5092243;28;1200;-69
2022/07/25 03:19:57;;;;;;;;;;;;;;;;;;5091106;28;1261;-70
2022/07/25 03:22:22;;;;;;;;;;;;;;;;;;5091943;28;906;-69
2022/07/25 03:24:48;;;;;;;;;;;;;;;;;;5090887;28;1241;-69
2022/07/25 03:27:13;;;;;;;;;;;;;;;;;;5093185;28;1905;-70
2022/07/25 03:29:39;;;;;;;;;;;;;;;;;;5074234;28;1210;-69
2022/07/25 03:32:04;;;;;;;;;;;;;;;;;;5092587;28;862;-70
2022/07/25 03:34:29;;;;;;;;;;;;;;;;;;5091394;28;1069;-69
2022/07/25 03:36:55;;;;;;;;;;;;;;;;;;5092103;28;904;-69
2022/07/25 03:39:20;;;;;;;;;;;;;;;;;;5091324;28;832;-70
2022/07/25 03:41:46;;;;;;;;;;;;;;;;;;5092300;28;1011;-69
2022/07/25 03:44:11;;;;;;;;;;;;;;;;;;5091623;28;1009;-69
2022/07/25 03:46:36;;;;;;;;;;;;;;;;;;5092266;28;1922;-69
2022/07/25 03:49:02;;;;;;;;;;;;;;;;;;5074388;28;1056;-69
2022/07/25 03:51:27;;;;;;;;;;;;;;;;;;5092164;28;967;-69
2022/07/25 03:54:02;;;;;;;;;;;;;;;;;;5091781;28;832;-70
2022/07/25 03:56:30;;;;;;;;;;;;;;;;;;5090780;28;1158;-69
2022/07/25 03:58:55;;;;;;;;;;;;;;;;;;5091161;28;821;-70
2022/07/25 04:01:22;;;;;;;;;;;;;;;;;;5090841;28;1252;-70
2022/07/25 04:03:47;;;;;;;;;;;;;;;;;;5092446;28;911;-70
2022/07/25 04:06:12;;;;;;;;;;;;;;;;;;5091632;28;1906;-71
2022/07/25 04:08:37;;;;;;;;;;;;;;;;;;5091876;28;920;-70
2022/07/25 04:11:03;;;;;;;;;;;;;;;;;;5091611;28;1182;-70
2022/07/25 04:13:28;;;;;;;;;;;;;;;;;;5091421;28;817;-70
2022/07/25 04:15:54;;;;;;;;;;;;;;;;;;5091207;28;877;-69
2022/07/25 04:18:19;;;;;;;;;;;;;;;;;;5090303;28;904;-69
2022/07/25 04:20:44;;;;;;;;;;;;;;;;;;5073313;28;1270;-69
2022/07/25 04:23:09;;;;;;;;;;;;;;;;;;5091602;28;951;-69
2022/07/25 04:25:35;;;;;;;;;;;;;;;;;;5091262;28;1939;-70
2022/07/25 04:28:00;;;;;;;;;;;;;;;;;;5091180;28;813;-69
2022/07/25 04:30:25;;;;;;;;;;;;;;;;;;5092063;28;805;-69
2022/07/25 04:32:51;;;;;;;;;;;;;;;;;;5094727;28;850;-69
2022/07/25 04:35:16;;;;;;;;;;;;;;;;;;5095242;28;809;-69
2022/07/25 04:37:42;;;;;;;;;;;;;;;;;;5095203;28;836;-69
2022/07/25 04:40:09;;;;;;;;;;;;;;;;;;5093238;28;915;-69
2022/07/25 04:42:34;;;;;;;;;;;;;;;;;;5094459;28;971;-70
2022/07/25 04:44:59;;;;;;;;;;;;;;;;;;5105968;28;1195;-69
2022/07/25 04:47:25;;;;;;;;;;;;;;;;;;5113295;28;1919;-69
2022/07/25 04:49:50;;;;;;;;;;;;;;;;;;5115088;28;817;-70
2022/07/25 04:52:15;;;;;;;;;;;;;;;;;;5114886;28;803;-70
2022/07/25 04:54:41;;;;;;;;;;;;;;;;;;5113604;28;922;-69
2022/07/25 04:57:06;;;;;;;;;;;;;;;;;;5096441;28;1265;-70
2022/07/25 04:59:32;;;;;;;;;;;;;;;;;;5114724;28;884;-69
2022/07/25 05:01:57;;;;;;;;;;;;;;;;;;5093407;28;1304;-70
2022/07/25 05:04:22;;;;;;;;;;;;;;;;;;5113497;28;1277;-70
2022/07/25 05:06:48;;;;;;;;;;;;;;;;;;5113429;28;1902;-69
2022/07/25 05:09:13;;;;;;;;;;;;;;;;;;5113381;28;782;-70
2022/07/25 05:11:38;;;;;;;;;;;;;;;;;;5114847;28;912;-70
2022/07/25 05:14:03;;;;;;;;;;;;;;;;;;5108826;28;1164;-70
2022/07/25 05:16:29;;;;;;;;;;;;;;;;;;5098530;28;1135;-70
2022/07/25 05:18:54;;;;;;;;;;;;;;;;;;5109994;28;1147;-70
2022/07/25 05:21:20;;;;;;;;;;;;;;;;;;5098463;28;1255;-70
2022/07/25 05:23:45;;;;;;;;;;;;;;;;;;5103326;28;1219;-70
2022/07/25 05:26:10;;;;;;;;;;;;;;;;;;5093055;28;1906;-71
2022/07/25 05:28:35;;;;;;;;;;;;;;;;;;5094199;28;754;-70
2022/07/25 05:31:00;;;;;;;;;;;;;;;;;;5093882;28;884;-70
2022/07/25 05:33:26;;;;;;;;;;;;;;;;;;5094601;28;840;-70
2022/07/25 05:35:51;;;;;;;;;;;;;;;;;;5093694;28;836;-70
2022/07/25 05:38:16;;;;;;;;;;;;;;;;;;5092803;28;1064;-69
2022/07/25 05:40:42;;;;;;;;;;;;;;;;;;5093760;28;1229;-70
2022/07/25 05:43:07;;;;;;;;;;;;;;;;;;5093585;28;828;-70
2022/07/25 05:45:33;;;;;;;;;;;;;;;;;;5092647;28;1905;-70
2022/07/25 05:47:58;;;;;;;;;;;;;;;;;;5091801;28;1308;-70
2022/07/25 05:50:23;;;;;;;;;;;;;;;;;;5093822;28;1003;-70
2022/07/25 05:52:49;;;;;;;;;;;;;;;;;;5093713;28;999;-71
2022/07/25 05:55:16;;;;;;;;;;;;;;;;;;5093005;28;963;-70
2022/07/25 05:57:42;;;;;;;;;;;;;;;;;;5093125;28;878;-70
2022/07/25 06:00:08;;;;;;;;;;;;;;;;;;5093184;28;788;-69
2022/07/25 06:02:33;;;;;;;;;;;;;;;;;;5093406;28;841;-71
2022/07/25 06:04:58;;;;;;;;;;;;;;;;;;5092729;28;1003;-71
2022/07/25 06:07:23;;;;;;;;;;;;;;;;;;5091867;28;1967;-71
2022/07/25 06:09:49;;;;;;;;;;;;;;;;;;5092065;28;1174;-71
2022/07/25 06:12:14;;;;;;;;;;;;;;;;;;5092974;28;848;-71
2022/07/25 06:14:39;;;;;;;;;;;;;;;;;;5094005;28;864;-70
2022/07/25 06:17:04;;;;;;;;;;;;;;;;;;5093659;28;849;-70
2022/07/25 06:19:29;;;;;;;;;;;;;;;;;;5074975;28;2160;-70
2022/07/25 06:21:55;;;;;;;;;;;;;;;;;;5091612;28;943;-70
2022/07/25 06:24:20;;;;;;;;;;;;;;;;;;5092457;28;887;-70
2022/07/25 06:26:45;;;;;;;;;;;;;;;;;;5092172;28;1969;-70
2022/07/25 06:29:11;;;;;;;;;;;;;;;;;;5092875;28;991;-70
2022/07/25 06:31:36;;;;;;;;;;;;;;;;;;5075100;28;1364;-70
2022/07/25 06:34:02;;;;;;;;;;;;;;;;;;5092365;28;962;-70
2022/07/25 06:36:27;;;;;;;;;;;;;;;;;;5092844;28;860;-70
2022/07/25 06:38:52;;;;;;;;;;;;;;;;;;5091061;28;1066;-70
2022/07/25 06:41:18;;;;;;;;;;;;;;;;;;5091283;28;1228;-70
2022/07/25 06:43:43;;;;;;;;;;;;;;;;;;5092532;28;915;-70
2022/07/25 06:46:08;;;;;;;;;;;;;;;;;;5091123;28;1905;-70
2022/07/25 06:48:33;;;;;;;;;;;;;;;;;;5091586;28;824;-70
2022/07/25 06:50:59;;;;;;;;;;;;;;;;;;5092172;28;974;-70
2022/07/25 06:53:24;;;;;;;;;;;;;;;;;;5092171;28;935;-70
2022/07/25 06:55:49;;;;;;;;;;;;;;;;;;5074226;28;1138;-70
2022/07/25 06:58:14;;;;;;;;;;;;;;;;;;5090799;28;938;-70
2022/07/25 07:00:40;;;;;;;;;;;;;;;;;;5092575;28;911;-69
2022/07/25 07:03:05;;;;;;;;;;;;;;;;;;5091879;28;856;-70
2022/07/25 07:05:32;;;;;;;;;;;;;;;;;;5090796;28;1983;-70
2022/07/25 07:07:58;;;;;;;;;;;;;;;;;;5092028;28;1294;-70
2022/07/25 07:10:24;;;;;;;;;;;;;;;;;;5074628;28;1158;-70
2022/07/25 07:12:50;;;;;;;;;;;;;;;;;;5092540;28;891;-70
2022/07/25 07:15:16;;;;;;;;;;;;;;;;;;5091112;28;1182;-70
2022/07/25 07:17:41;;;;;;;;;;;;;;;;;;5092750;28;884;-70
2022/07/25 07:20:07;;;;;;;;;;;;;;;;;;5074026;28;1262;-70
2022/07/25 07:22:42;;;;;;;;;;;;;;;;;;5092318;28;943;-70
2022/07/25 07:25:07;;;;;;;;;;;;;;;;;;5091551;28;1062;-70
2022/07/25 07:27:32;;;;;;;;;;;;;;;;;;5090538;28;1911;-70
2022/07/25 07:29:57;;;;;;;;;;;;;;;;;;5090574;28;991;-70
2022/07/25 07:32:23;;;;;;;;;;;;;;;;;;5092785;28;832;-70
2022/07/25 07:34:48;;;;;;;;;;;;;;;;;;5091886;28;1234;-69
2022/07/25 07:37:13;;;;;;;;;;;;;;;;;;5092110;28;880;-70
2022/07/25 07:39:39;;;;;;;;;;;;;;;;;;5092914;28;908;-70
2022/07/25 07:42:04;;;;;;;;;;;;;;;;;;5073199;28;1325;-70
2022/07/25 07:44:29;;;;;;;;;;;;;;;;;;5074110;28;1130;-70
2022/07/25 07:46:55;;;;;;;;;;;;;;;;;;5091257;28;1906;-70
2022/07/25 07:49:20;;;;;;;;;;;;;;;;;;5091032;28;848;-70
2022/07/25 07:51:45;;;;;;;;;;;;;;;;;;5090634;28;1416;-70
2022/07/25 07:56:55;;;;;;;;;;;;;;;;;;5090682;28;749;-70
2022/07/25 07:59:20;;;;;;;;;;;;;;;;;;5092395;28;1018;-71
2022/07/25 08:01:46;;;;;;;;;;;;;;;;;;5090807;28;1337;-69
2022/07/25 08:04:11;;;;;;;;;;;;;;;;;;5091542;28;933;-70
2022/07/25 08:06:36;;;;;;;;;;;;;;;;;;5077646;28;1914;-71
2022/07/25 08:09:02;;;;;;;;;;;;;;;;;;5094454;28;840;-71
2022/07/25 08:11:27;;;;;;;;;;;;;;;;;;5095576;28;1277;-71
2022/07/25 08:13:52;;;;;;;;;;;;;;;;;;5095240;28;1050;-71
2022/07/25 08:16:18;;;;;;;;;;;;;;;;;;5095398;28;955;-71
2022/07/25 08:18:43;;;;;;;;;;;;;;;;;;5077188;28;1151;-71
2022/07/25 08:21:08;;;;;;;;;;;;;;;;;;5095174;28;895;-71
2022/07/25 08:23:37;;;;;;;;;;;;;;;;;;5095148;28;837;-71
2022/07/25 08:26:02;;;;;;;;;;;;;;;;;;5092915;28;1913;-70
2022/07/25 08:28:28;;;;;;;;;;;;;;;;;;5095213;28;865;-71
2022/07/25 08:30:53;;;;;;;;;;;;;;;;;;5095340;28;903;-71
2022/07/25 08:33:19;;;;;;;;;;;;;;;;;;5095329;28;848;-71
2022/07/25 08:35:45;;;;;;;;;;;;;;;;;;5095483;28;827;-71
2022/07/25 08:38:10;;;;;;;;;;;;;;;;;;5093491;28;1145;-70
2022/07/25 08:40:36;;;;;;;;;;;;;;;;;;5094487;28;1226;-70
2022/07/25 08:43:02;;;;;;;;;;;;;;;;;;5093467;28;904;-70
2022/07/25 08:45:27;;;;;;;;;;;;;;;;;;5095666;28;832;-71
2022/07/25 08:47:53;;;;;;;;;;;;;;;;;;5093726;28;1910;-70
2022/07/25 08:50:23;;;;;;;;;;;;;;;;;;5094055;28;996;-70
2022/07/25 08:52:48;;;;;;;;;;;;;;;;;;5095467;28;888;-70
2022/07/25 08:55:18;;;;;;;;;;;;;;;;;;5094701;28;824;-70
2022/07/25 08:57:44;;;;;;;;;;;;;;;;;;5093918;28;888;-70
2022/07/25 09:00:11;;;;;;;;;;;;;;;;;;5093362;28;1277;-70
2022/07/25 09:02:37;;;;;;;;;;;;;;;;;;5094265;28;1293;-70
2022/07/25 09:05:02;;;;;;;;;;;;;;;;;;5076047;28;1306;-70
2022/07/25 09:07:45;;;;;;;;;;;;;;;;;;5093480;28;1914;-70
2022/07/25 09:10:15;;;;;;;;;;;;;;;;;;5094581;28;978;-70
2022/07/25 09:12:40;;;;;;;;;;;;;;;;;;5095418;28;816;-70
2022/07/25 09:15:07;;;;;;;;;;;;;;;;;;5093632;28;883;-70
2022/07/25 09:17:33;;;;;;;;;;;;;;;;;;5094644;28;864;-70
2022/07/25 09:19:58;;;;;;;;;;;;;;;;;;5094624;28;852;-70
2022/07/25 09:22:23;;;;;;;;;;;;;;;;;;5093141;28;924;-70
2022/07/25 09:24:48;;;;;;;;;;;;;;;;;;5092783;28;884;-70
2022/07/25 09:27:14;;;;;;;;;;;;;;;;;;5092598;28;1977;-70
2022/07/25 09:29:41;;;;;;;;;;;;;;;;;;5095366;28;821;-70
2022/07/25 09:32:33;;;;;;;;;;;;;;;;;;5092349;28;1381;-70
2022/07/25 09:34:58;;;;;;;;;;;;;;;;;;5091285;28;1159;-70
2022/07/25 09:37:25;;;;;;;;;;;;;;;;;;5092834;28;1320;-70
2022/07/25 09:39:50;;;;;;;;;;;;;;;;;;5094008;28;836;-70
2022/07/25 09:42:18;;;;;;;;;;;;;;;;;;5093549;28;899;-70
2022/07/25 09:44:55;;;;;;;;;;;;;;;;;;5093852;28;935;-71
2022/07/25 09:47:20;;;;;;;;;;;;;;;;;;5093492;28;1906;-71
2022/07/25 09:49:46;;;;;;;;;;;;;;;;;;5092464;28;1107;-71
2022/07/25 09:52:12;;;;;;;;;;;;;;;;;;5092047;28;1365;-70
2022/07/25 09:54:38;;;;;;;;;;;;;;;;;;5092995;28;1323;-71
2022/07/25 09:57:03;;;;;;;;;;;;;;;;;;5093658;28;821;-71
2022/07/25 09:59:28;;;;;;;;;;;;;;;;;;5092369;28;1163;-71
2022/07/25 10:02:05;;;;;;;;;;;;;;;;;;5093881;28;904;-71
2022/07/25 10:04:45;;;;;;;;;;;;;;;;;;5092354;28;1151;-71
2022/07/25 10:07:13;;;;;;;;;;;;;;;;;;5092936;28;1902;-71
2022/07/25 10:09:41;;;;;;;;;;;;;;;;;;5092450;28;1158;-70
2022/07/25 10:12:08;;;;;;;;;;;;;;;;;;5093630;28;1248;-70
2022/07/25 10:14:35;;;;;;;;;;;;;;;;;;5093271;28;935;-70
2022/07/25 10:17:00;;;;;;;;;;;;;;;;;;5093164;28;805;-70
2022/07/25 10:19:55;;;;;;;;;;;;;;;;;;5093637;28;899;-70
2022/07/25 10:22:20;;;;;;;;;;;;;;;;;;5078518;28;1187;-70
2022/07/25 10:24:46;;;;;;;;;;;;;;;;;;5091790;28;1265;-70
2022/07/25 10:27:13;;;;;;;;;;;;;;;;;;5092526;28;1961;-71
2022/07/25 10:29:39;;;;;;;;;;;;;;;;;;5093895;28;843;-71
2022/07/25 10:32:08;;;;;;;;;;;;;;;;;;5092935;28;921;-70
2022/07/25 10:34:34;;;;;;;;;;;;;;;;;;5093444;28;962;-70
2022/07/25 10:37:10;;;;;;;;;;;;;;;;;;5093495;28;983;-70
2022/07/25 10:39:37;;;;;;;;;;;;;;;;;;5093892;28;746;-70
2022/07/25 10:42:03;;;;;;;;;;;;;;;;;;5093017;28;867;-70
2022/07/25 10:44:51;;;;;;;;;;;;;;;;;;5093461;28;935;-70
2022/07/25 10:47:16;;;;;;;;;;;;;;;;;;5080752;28;1910;-71
2022/07/25 10:49:44;;;;;;;;;;;;;;;;;;5093712;28;805;-71
2022/07/25 10:52:14;;;;;;;;;;;;;;;;;;5092297;28;1377;-71
2022/07/25 10:54:40;;;;;;;;;;;;;;;;;;5092809;28;1205;-71
2022/07/25 10:57:12;;;;;;;;;;;;;;;;;;5092577;28;1272;-71
2022/07/25 10:59:38;;;;;;;;;;;;;;;;;;5093917;28;841;-71
2022/07/25 11:02:05;;;;;;;;;;;;;;;;;;5092967;28;1379;-71
2022/07/25 11:04:30;;;;;;;;;;;;;;;;;;5093747;28;1018;-71
2022/07/25 11:06:56;;;;;;;;;;;;;;;;;;5091795;28;1968;-70
2022/07/25 11:09:27;;;;;;;;;;;;;;;;;;5093237;28;1195;-71
2022/07/25 11:11:54;;;;;;;;;;;;;;;;;;5093378;28;903;-70
2022/07/25 11:14:21;;;;;;;;;;;;;;;;;;5092363;28;1415;-71
2022/07/25 11:16:48;;;;;;;;;;;;;;;;;;5092274;28;1174;-71
2022/07/25 11:19:17;;;;;;;;;;;;;;;;;;5094175;28;856;-70
2022/07/25 11:21:44;;;;;;;;;;;;;;;;;;5094974;28;1035;-70
2022/07/25 11:24:09;;;;;;;;;;;;;;;;;;5093328;28;861;-70
2022/07/25 11:26:43;;;;;;;;;;;;;;;;;;5093477;28;1918;-70
2022/07/25 11:29:16;;;;;;;;;;;;;;;;;;5093525;28;825;-70
2022/07/25 11:31:41;;;;;;;;;;;;;;;;;;5091979;28;970;-70
2022/07/25 11:34:07;;;;;;;;;;;;;;;;;;5091738;28;1018;-70
2022/07/25 11:36:32;;;;;;;;;;;;;;;;;;5094525;28;864;-69
2022/07/25 11:38:57;;;;;;;;;;;;;;;;;;5095069;28;1023;-69
2022/07/25 11:41:29;;;;;;;;;;;;;;;;;;5097069;28;887;-69
2022/07/25 11:43:54;;;;;;;;;;;;;;;;;;5096308;28;821;-70
2022/07/25 11:46:20;;;;;;;;;;;;;;;;;;5097907;28;1902;-70
2022/07/25 11:48:46;;;;;;;;;;;;;;;;;;5095546;28;919;-69
2022/07/25 11:51:12;;;;;;;;;;;;;;;;;;5096652;28;880;-70
2022/07/25 11:53:38;;;;;;;;;;;;;;;;;;5095820;28;860;-70
2022/07/25 11:56:17;;;;;;;;;;;;;;;;;;5096652;28;947;-70
2022/07/25 11:58:48;;;;;;;;;;;;;;;;;;5095330;28;1245;-69
2022/07/25 12:01:14;;;;;;;;;;;;;;;;;;5095319;28;1218;-71
2022/07/25 12:03:40;;;;;;;;;;;;;;;;;;5096980;28;900;-71
2022/07/25 12:06:09;;;;;;;;;;;;;;;;;;5094772;28;1901;-70
2022/07/25 12:08:39;;;;;;;;;;;;;;;;;;5095001;28;1318;-71
2022/07/25 12:11:15;;;;;;;;;;;;;;;;;;5096344;28;907;-71
2022/07/25 12:13:40;;;;;;;;;;;;;;;;;;5096436;28;817;-71
2022/07/25 12:16:06;;;;;;;;;;;;;;;;;;5094654;28;1328;-70
2022/07/25 12:18:32;;;;;;;;;;;;;;;;;;5096445;28;853;-69
2022/07/25 12:20:57;;;;;;;;;;;;;;;;;;5096373;28;1425;-70
2022/07/25 12:23:22;;;;;;;;;;;;;;;;;;5110387;28;1199;-70
2022/07/25 12:25:48;;;;;;;;;;;;;;;;;;5113814;28;1925;-70
2022/07/25 12:28:13;;;;;;;;;;;;;;;;;;5116427;28;840;-69
2022/07/25 12:30:39;;;;;;;;;;;;;;;;;;5115336;28;1271;-70
2022/07/25 12:33:05;;;;;;;;;;;;;;;;;;5116691;28;923;-70
2022/07/25 12:35:30;;;;;;;;;;;;;;;;;;5116608;28;911;-70
2022/07/25 12:37:55;;;;;;;;;;;;;;;;;;5115625;28;883;-70
2022/07/25 12:40:21;;;;;;;;;;;;;;;;;;5116147;28;831;-70
2022/07/25 12:42:46;;;;;;;;;;;;;;;;;;5115155;28;1137;-70
2022/07/25 12:45:13;;;;;;;;;;;;;;;;;;5114928;28;876;-70
2022/07/25 12:47:39;;;;;;;;;;;;;;;;;;5116505;28;1961;-71
2022/07/25 12:50:05;;;;;;;;;;;;;;;;;;5097231;28;1301;-70
2022/07/25 12:52:31;;;;;;;;;;;;;;;;;;5116484;27;1263;-71
2022/07/25 12:54:56;;;;;;;;;;;;;;;;;;5114706;28;1277;-71
2022/07/25 12:57:21;;;;;;;;;;;;;;;;;;5116027;28;911;-71
2022/07/25 12:59:47;;;;;;;;;;;;;;;;;;5114808;28;1158;-71
2022/07/25 13:02:12;;;;;;;;;;;;;;;;;;5115833;27;923;-71
2022/07/25 13:04:37;;;;;;;;;;;;;;;;;;5114054;28;990;-69
2022/07/25 13:07:03;;;;;;;;;;;;;;;;;;5115148;28;1905;-71
2022/07/25 13:09:28;;;;;;;;;;;;;;;;;;5115504;28;955;-71
2022/07/25 13:11:53;;;;;;;;;;;;;;;;;;5113897;28;1379;-69
2022/07/25 13:14:19;;;;;;;;;;;;;;;;;;5115305;28;786;-69
2022/07/25 13:16:45;;;;;;;;;;;;;;;;;;5115198;28;824;-69
2022/07/25 13:19:11;;;;;;;;;;;;;;;;;;5113780;28;1202;-72
2022/07/25 13:21:36;;;;;;;;;;;;;;;;;;5097028;28;1313;-72
2022/07/25 13:24:03;;;;;;;;;;;;;;;;;;5115402;28;875;-68
2022/07/25 13:26:28;;;;;;;;;;;;;;;;;;5115168;28;1955;-70
2022/07/25 13:28:53;;;;;;;;;;;;;;;;;;5113395;28;821;-70
2022/07/25 13:31:19;;;;;;;;;;;;;;;;;;5113172;28;908;-70
2022/07/25 13:33:44;;;;;;;;;;;;;;;;;;5113436;28;1139;-70
2022/07/25 13:36:10;;;;;;;;;;;;;;;;;;5114789;28;908;-69
2022/07/25 13:38:37;;;;;;;;;;;;;;;;;;5113800;28;920;-70
2022/07/25 13:41:02;;;;;;;;;;;;;;;;;;5113665;28;1174;-70
2022/07/25 13:43:28;;;;;;;;;;;;;;;;;;5113322;28;1272;-70
2022/07/25 13:45:53;;;;;;;;;;;;;;;;;;5113139;28;1959;-71
2022/07/25 13:48:18;;;;;;;;;;;;;;;;;;5112884;28;1265;-71
2022/07/25 13:50:43;;;;;;;;;;;;;;;;;;5112970;28;1058;-71
2022/07/25 13:53:09;;;;;;;;;;;;;;;;;;5113067;28;1485;-70
2022/07/25 13:55:34;;;;;;;;;;;;;;;;;;5113085;28;1257;-70
2022/07/25 13:58:00;;;;;;;;;;;;;;;;;;5114011;28;943;-70
2022/07/25 14:00:25;;;;;;;;;;;;;;;;;;5095862;28;1254;-70
2022/07/25 14:02:50;;;;;;;;;;;;;;;;;;5112841;28;1403;-70
2022/07/25 14:05:16;;;;;;;;;;;;;;;;;;5095635;28;1238;-70
2022/07/25 14:07:42;;;;;;;;;;;;;;;;;;5112444;28;1910;-71
2022/07/25 14:10:07;;;;;;;;;;;;;;;;;;5114007;28;840;-70
2022/07/25 14:12:33;;;;;;;;;;;;;;;;;;5113915;28;1178;-70
2022/07/25 14:14:58;;;;;;;;;;;;;;;;;;5113819;28;987;-71
2022/07/25 14:17:24;;;;;;;;;;;;;;;;;;5113619;28;1109;-70
2022/07/25 14:19:49;;;;;;;;;;;;;;;;;;5113526;28;883;-70
2022/07/25 14:22:14;;;;;;;;;;;;;;;;;;5112151;28;1221;-70
2022/07/25 14:24:39;;;;;;;;;;;;;;;;;;5113716;28;904;-70
2022/07/25 14:27:05;;;;;;;;;;;;;;;;;;5095198;28;1965;-70
2022/07/25 14:29:30;;;;;;;;;;;;;;;;;;5114310;28;923;-71
2022/07/25 14:31:55;;;;;;;;;;;;;;;;;;5112617;28;883;-70
2022/07/25 14:34:20;;;;;;;;;;;;;;;;;;5112657;28;880;-70
2022/07/25 14:36:46;;;;;;;;;;;;;;;;;;5114048;28;896;-69
2022/07/25 14:39:12;;;;;;;;;;;;;;;;;;5112355;28;1198;-70
2022/07/25 14:41:40;;;;;;;;;;;;;;;;;;5114387;28;888;-70
2022/07/25 14:44:05;;;;;;;;;;;;;;;;;;5112087;28;1206;-70
2022/07/25 14:46:31;;;;;;;;;;;;;;;;;;5113719;28;1913;-70
2022/07/25 14:48:56;;;;;;;;;;;;;;;;;;5112172;28;1156;-70
2022/07/25 14:51:22;;;;;;;;;;;;;;;;;;5112895;28;955;-70
2022/07/25 14:53:47;;;;;;;;;;;;;;;;;;5113254;28;968;-70
2022/07/25 14:56:12;;;;;;;;;;;;;;;;;;5112899;28;859;-70
2022/07/25 14:58:38;;;;;;;;;;;;;;;;;;5113184;28;895;-69
2022/07/25 15:01:03;;;;;;;;;;;;;;;;;;5112805;28;986;-70
2022/07/25 15:03:29;;;;;;;;;;;;;;;;;;5111561;28;1340;-70
2022/07/25 15:05:54;;;;;;;;;;;;;;;;;;5112755;28;1902;-70
2022/07/25 15:08:19;;;;;;;;;;;;;;;;;;5112886;28;1382;-70
2022/07/25 15:10:45;;;;;;;;;;;;;;;;;;5094669;28;1250;-69
2022/07/25 15:13:10;;;;;;;;;;;;;;;;;;5110915;28;1441;-70
2022/07/25 15:15:36;;;;;;;;;;;;;;;;;;5112460;28;1234;-70
2022/07/25 15:18:01;;;;;;;;;;;;;;;;;;5101857;28;1199;-71
2022/07/25 15:20:26;;;;;;;;;;;;;;;;;;5110033;28;1152;-70
2022/07/25 15:22:52;;;;;;;;;;;;;;;;;;5111600;28;955;-70
2022/07/25 15:25:17;;;;;;;;;;;;;;;;;;5113147;28;912;-71
2022/07/25 15:27:42;;;;;;;;;;;;;;;;;;5113231;28;1914;-70
2022/07/25 15:30:08;;;;;;;;;;;;;;;;;;5113540;28;923;-71
2022/07/25 15:32:33;;;;;;;;;;;;;;;;;;5112176;28;967;-70
2022/07/25 15:34:58;;;;;;;;;;;;;;;;;;5112881;28;998;-71
2022/07/25 15:37:24;;;;;;;;;;;;;;;;;;5113372;28;826;-71
2022/07/25 15:39:49;;;;;;;;;;;;;;;;;;5112845;28;1241;-70
2022/07/25 15:42:14;;;;;;;;;;;;;;;;;;5116233;28;825;-71
2022/07/25 15:44:40;;;;;;;;;;;;;;;;;;5117652;28;907;-70
2022/07/25 15:47:05;;;;;;;;;;;;;;;;;;5121696;28;1890;-70
2022/07/25 15:49:31;;;;;;;;;;;;;;;;;;5122910;28;1210;-69
2022/07/25 15:51:56;;;;;;;;;;;;;;;;;;5129514;28;1034;-70
2022/07/25 15:54:21;;;;;;;;;;;;;;;;;;5115183;28;1050;-71
2022/07/25 15:56:46;;;;;;;;;;;;;;;;;;5117234;28;892;-70
2022/07/25 15:59:12;;;;;;;;;;;;;;;;;;5115331;28;840;-70
2022/07/25 16:01:37;;;;;;;;;;;;;;;;;;5116920;28;959;-70
2022/07/25 16:04:02;;;;;;;;;;;;;;;;;;5115123;28;1238;-70
2022/07/25 16:06:28;;;;;;;;;;;;;;;;;;5114098;28;1905;-70
2022/07/25 16:08:54;;;;;;;;;;;;;;;;;;5114991;28;1222;-70
2022/07/25 16:11:20;;;;;;;;;;;;;;;;;;5118106;28;867;-71
2022/07/25 16:13:45;;;;;;;;;;;;;;;;;;5119063;28;887;-69
2022/07/25 16:16:10;;;;;;;;;;;;;;;;;;5117327;28;1053;-70
2022/07/25 16:18:36;;;;;;;;;;;;;;;;;;5116256;28;888;-69
2022/07/25 16:21:01;;;;;;;;;;;;;;;;;;5116277;28;982;-69
2022/07/25 16:23:29;;;;;;;;;;;;;;;;;;5113797;28;844;-70
2022/07/25 16:25:55;;;;;;;;;;;;;;;;;;5114769;28;1918;-71
2022/07/25 16:28:20;;;;;;;;;;;;;;;;;;5116790;28;836;-70
2022/07/25 16:30:45;;;;;;;;;;;;;;;;;;5115580;28;837;-70
2022/07/25 16:33:10;;;;;;;;;;;;;;;;;;5116583;28;1011;-70
2022/07/25 16:35:38;;;;;;;;;;;;;;;;;;5117907;28;852;-71
2022/07/25 16:38:03;;;;;;;;;;;;;;;;;;5128565;28;1011;-71
2022/07/25 16:40:28;;;;;;;;;;;;;;;;;;5116282;28;979;-71
2022/07/25 16:42:57;;;;;;;;;;;;;;;;;;5116238;28;1018;-71
2022/07/25 16:45:22;;;;;;;;;;;;;;;;;;5114909;28;1028;-71
2022/07/25 16:47:49;;;;;;;;;;;;;;;;;;5115842;28;1971;-71
2022/07/25 16:50:14;;;;;;;;;;;;;;;;;;5115055;28;1007;-71
2022/07/25 16:52:39;;;;;;;;;;;;;;;;;;5115976;28;1034;-71
2022/07/25 16:55:04;;;;;;;;;;;;;;;;;;5114428;28;1314;-71
2022/07/25 16:57:30;;;;;;;;;;;;;;;;;;5114688;28;1020;-71
2022/07/25 16:59:55;;;;;;;;;;;;;;;;;;5115616;28;817;-71
2022/07/25 17:02:21;;;;;;;;;;;;;;;;;;5115405;28;836;-71
2022/07/25 17:04:47;;;;;;;;;;;;;;;;;;5114414;28;1328;-70
2022/07/25 17:07:12;;;;;;;;;;;;;;;;;;5113733;28;1905;-70